createdAt,value
2022-11-12T00:01:15.259Z,7.30
2022-11-12T00:03:44.609Z,7.20
2022-11-12T00:06:12.603Z,7.20
2022-11-12T00:08:40.658Z,7.20
2022-11-12T00:11:08.700Z,7.20
2022-11-12T00:13:36.716Z,7.20
2022-11-12T00:16:05.801Z,7.30
2022-11-12T00:18:33.901Z,7.20
2022-11-12T00:21:03.200Z,7.10
2022-11-12T00:23:31.176Z,7.10
2022-11-12T00:26:00.814Z,7.10
2022-11-12T00:28:32.215Z,7.10
2022-11-12T00:31:08.682Z,7.10
2022-11-12T00:33:40.787Z,7.10
2022-11-12T00:36:11.243Z,7.20
2022-11-12T00:38:39.203Z,7.10
2022-11-12T00:41:07.215Z,7.10
2022-11-12T00:43:35.672Z,7.20
2022-11-12T00:46:03.776Z,7.20
2022-11-12T00:48:31.838Z,7.20
2022-11-12T00:51:04.437Z,7.20
2022-11-12T00:53:34.172Z,7.30
2022-11-12T00:56:03.454Z,7.40
2022-11-12T00:58:31.954Z,7.30
2022-11-12T01:01:05.474Z,7.40
2022-11-12T01:03:33.533Z,7.30
2022-11-12T01:06:04.102Z,7.30
2022-11-12T01:08:33.796Z,7.30
2022-11-12T01:11:08.005Z,7.30
2022-11-12T01:13:40.044Z,7.30
2022-11-12T01:16:14.249Z,7.30
2022-11-12T01:18:42.672Z,7.20
2022-11-12T01:21:11.396Z,7.20
2022-11-12T01:23:42.325Z,7.10
2022-11-12T01:26:12.245Z,7.10
2022-11-12T01:28:40.793Z,7.00
2022-11-12T01:31:13.525Z,7.00
2022-11-12T01:33:41.853Z,7.00
2022-11-12T01:36:10.263Z,7.10
2022-11-12T01:38:40.881Z,7.10
2022-11-12T01:41:10.542Z,7.10
2022-11-12T01:43:39.060Z,7.10
2022-11-12T01:46:14.473Z,7.20
2022-11-12T01:48:49.365Z,7.20
2022-11-12T01:51:17.710Z,7.20
2022-11-12T01:53:51.474Z,7.20
2022-11-12T01:56:20.966Z,7.30
2022-11-12T01:58:53.427Z,7.10
2022-11-12T02:01:21.430Z,7.20
2022-11-12T02:03:49.488Z,7.00
2022-11-12T02:06:18.662Z,7.00
2022-11-12T02:08:49.572Z,7.00
2022-11-12T02:11:19.557Z,6.90
2022-11-12T02:14:01.534Z,6.90
2022-11-12T02:16:33.164Z,7.00
2022-11-12T02:19:01.488Z,7.00
2022-11-12T02:21:30.973Z,7.00
2022-11-12T02:24:00.468Z,7.00
2022-11-12T02:26:32.708Z,7.00
2022-11-12T02:29:01.053Z,7.10
2022-11-12T02:31:29.347Z,7.10
2022-11-12T02:33:57.573Z,7.20
2022-11-12T02:36:26.038Z,7.20
2022-11-12T02:38:55.401Z,7.20
2022-11-12T02:41:23.865Z,7.20
2022-11-12T02:43:51.896Z,7.20
2022-11-12T02:46:20.029Z,7.20
2022-11-12T02:48:47.973Z,7.30
2022-11-12T02:51:16.192Z,7.30
2022-11-12T02:53:51.512Z,7.30
2022-11-12T02:56:23.180Z,7.30
2022-11-12T03:01:37.635Z,7.30
2022-11-12T03:04:09.595Z,7.30
2022-11-12T03:06:44.843Z,7.30
2022-11-12T03:09:12.987Z,8.70
2022-11-12T03:14:24.655Z,7.20
2022-11-12T03:16:52.726Z,7.20
2022-11-12T03:19:20.805Z,7.20
2022-11-12T03:21:48.922Z,7.20
2022-11-12T03:24:16.985Z,7.20
2022-11-12T03:26:46.507Z,7.20
2022-11-12T03:29:14.596Z,7.30
2022-11-12T03:31:43.134Z,7.20
2022-11-12T03:34:12.276Z,7.10
2022-11-12T03:36:40.312Z,7.20
2022-11-12T03:39:08.834Z,7.10
2022-11-12T03:41:36.944Z,7.10
2022-11-12T03:44:06.575Z,7.00
2022-11-12T03:46:35.596Z,7.00
2022-11-12T03:49:05.982Z,6.90
2022-11-12T03:51:34.016Z,6.80
2022-11-12T03:54:02.087Z,6.90
2022-11-12T03:56:30.179Z,6.70
2022-11-12T03:58:58.531Z,6.70
2022-11-12T04:01:30.550Z,6.60
2022-11-12T04:03:58.921Z,6.60
2022-11-12T04:06:44.518Z,6.60
2022-11-12T04:09:13.010Z,6.60
2022-11-12T04:11:41.191Z,6.50
2022-11-12T04:14:08.643Z,6.50
2022-11-12T04:16:55.758Z,6.40
2022-11-12T04:19:41.236Z,6.30
2022-11-12T04:22:12.416Z,6.30
2022-11-12T04:25:00.365Z,6.20
2022-11-12T04:27:30.264Z,6.20
2022-11-12T04:30:16.217Z,6.10
2022-11-12T04:32:50.606Z,6.10
2022-11-12T04:35:19.543Z,6.20
2022-11-12T04:37:48.746Z,6.20
2022-11-12T04:40:36.477Z,6.10
2022-11-12T04:43:23.147Z,6.20
2022-11-12T04:45:53.540Z,6.20
2022-11-12T04:48:24.226Z,6.20
2022-11-12T04:50:56.829Z,6.10
2022-11-12T04:53:25.975Z,6.10
2022-11-12T04:55:54.919Z,6.10
2022-11-12T04:58:23.682Z,6.10
2022-11-12T05:00:53.633Z,6.10
2022-11-12T05:03:23.959Z,6.20
2022-11-12T05:05:52.346Z,6.20
2022-11-12T05:08:20.385Z,6.20
2022-11-12T05:10:48.678Z,6.30
2022-11-12T05:13:16.690Z,6.20
2022-11-12T05:15:45.059Z,6.20
2022-11-12T05:18:13.203Z,6.20
2022-11-12T05:20:42.829Z,6.10
2022-11-12T05:23:10.884Z,6.10
2022-11-12T05:25:39.052Z,6.10
2022-11-12T05:28:07.407Z,6.10
2022-11-12T05:30:36.508Z,6.10
2022-11-12T05:33:04.686Z,6.10
2022-11-12T05:35:32.966Z,6.10
2022-11-12T05:38:02.313Z,6.10
2022-11-12T05:40:30.541Z,6.10
2022-11-12T05:42:58.752Z,6.10
2022-11-12T05:45:27.015Z,6.10
2022-11-12T05:47:55.300Z,6.10
2022-11-12T05:50:23.612Z,6.10
2022-11-12T05:52:51.717Z,6.10
2022-11-12T05:55:21.226Z,6.10
2022-11-12T05:57:49.396Z,6.00
2022-11-12T06:00:18.494Z,6.00
2022-11-12T06:02:46.524Z,5.90
2022-11-12T06:05:15.064Z,5.90
2022-11-12T06:07:43.244Z,5.80
2022-11-12T06:10:16.033Z,5.70
2022-11-12T06:12:48.898Z,5.70
2022-11-12T06:15:17.231Z,5.70
2022-11-12T06:17:45.439Z,5.70
2022-11-12T06:20:14.109Z,5.80
2022-11-12T06:22:42.374Z,5.70
2022-11-12T06:25:10.917Z,5.70
2022-11-12T06:27:39.136Z,5.60
2022-11-12T06:30:10.629Z,5.60
2022-11-12T06:32:38.667Z,5.60
2022-11-12T06:35:07.681Z,5.60
2022-11-12T06:37:35.779Z,5.70
2022-11-12T06:40:03.871Z,5.70
2022-11-12T06:42:32.075Z,5.80
2022-11-12T06:45:00.300Z,5.90
2022-11-12T06:47:29.859Z,6.00
2022-11-12T06:49:57.959Z,6.20
2022-11-12T06:52:26.789Z,6.30
2022-11-12T06:54:54.970Z,6.40
2022-11-12T06:57:23.142Z,6.60
2022-11-12T06:59:51.378Z,6.90
2022-11-12T07:02:19.394Z,7.20
2022-11-12T07:04:48.882Z,7.60
2022-11-12T07:07:17.149Z,8.00
2022-11-12T07:09:45.279Z,8.50
2022-11-12T07:12:13.488Z,9.10
2022-11-12T07:14:41.558Z,9.60
2022-11-12T07:17:09.803Z,10.20
2022-11-12T07:19:38.254Z,10.80
2022-11-12T07:22:07.747Z,11.30
2022-11-12T07:24:35.862Z,11.80
2022-11-12T07:27:04.011Z,12.20
2022-11-12T07:29:46.872Z,12.60
2022-11-12T07:32:15.912Z,13.00
2022-11-12T07:34:43.986Z,13.50
2022-11-12T07:37:14.062Z,13.70
2022-11-12T07:39:42.192Z,14.10
2022-11-12T07:42:10.313Z,14.50
2022-11-12T07:44:38.615Z,14.90
2022-11-12T07:47:06.717Z,15.20
2022-11-12T07:49:34.723Z,15.40
2022-11-12T07:52:02.817Z,15.70
2022-11-12T07:54:32.411Z,16.00
2022-11-12T07:57:00.849Z,16.30
2022-11-12T07:59:29.426Z,16.60
2022-11-12T08:01:57.528Z,16.70
2022-11-12T08:04:27.862Z,16.80
2022-11-12T08:07:01.282Z,16.70
2022-11-12T08:09:29.356Z,16.50
2022-11-12T08:11:58.842Z,15.90
2022-11-12T08:14:26.949Z,15.80
2022-11-12T08:16:55.069Z,15.90
2022-11-12T08:19:23.287Z,16.30
2022-11-12T08:21:51.275Z,16.70
2022-11-12T08:24:19.485Z,17.00
2022-11-12T08:26:47.592Z,17.10
2022-11-12T08:29:17.145Z,17.10
2022-11-12T08:31:48.395Z,16.90
2022-11-12T08:34:22.330Z,17.10
2022-11-12T08:36:50.774Z,17.20
2022-11-12T08:39:19.048Z,17.10
2022-11-12T08:41:47.339Z,16.90
2022-11-12T08:44:17.017Z,16.70
2022-11-12T08:46:45.257Z,16.90
2022-11-12T08:49:13.588Z,17.20
2022-11-12T08:51:41.622Z,17.30
2022-11-12T08:54:09.844Z,17.70
2022-11-12T08:56:38.063Z,18.00
2022-11-12T08:59:07.509Z,18.30
2022-11-12T09:01:43.581Z,18.60
2022-11-12T09:04:23.642Z,18.80
2022-11-12T09:06:54.064Z,19.00
2022-11-12T09:13:10.707Z,19.60
2022-11-12T09:15:39.204Z,19.60
2022-11-12T09:18:12.250Z,19.60
2022-11-12T09:20:40.723Z,19.60
2022-11-12T09:23:10.745Z,19.60
2022-11-12T09:25:39.890Z,19.90
2022-11-12T09:28:10.209Z,20.30
2022-11-12T09:30:39.660Z,20.60
2022-11-12T09:33:09.429Z,20.80
2022-11-12T09:35:37.652Z,21.00
2022-11-12T09:38:08.208Z,20.80
2022-11-12T09:40:44.934Z,20.90
2022-11-12T09:43:20.357Z,20.50
2022-11-12T09:46:06.504Z,20.00
2022-11-12T09:48:50.445Z,19.60
2022-11-12T09:51:26.509Z,19.40
2022-11-12T09:53:57.295Z,19.30
2022-11-12T09:56:28.246Z,19.30
2022-11-12T09:58:56.447Z,19.20
2022-11-12T10:01:36.279Z,19.20
2022-11-12T10:04:21.394Z,19.30
2022-11-12T10:06:59.321Z,19.20
2022-11-12T10:09:34.990Z,19.20
2022-11-12T10:12:31.639Z,19.40
2022-11-12T10:15:37.282Z,19.60
2022-11-12T10:18:09.782Z,19.70
2022-11-12T10:20:45.006Z,19.60
2022-11-12T10:23:19.588Z,19.50
2022-11-12T10:25:50.401Z,19.10
2022-11-12T10:28:28.152Z,18.70
2022-11-12T10:31:09.016Z,18.10
2022-11-12T10:33:37.291Z,17.60
2022-11-12T10:36:27.643Z,17.20
2022-11-12T10:38:56.194Z,17.00
2022-11-12T10:41:27.454Z,16.60
2022-11-12T10:44:14.822Z,16.50
2022-11-12T10:46:43.450Z,16.50
2022-11-12T10:49:25.728Z,16.50
2022-11-12T10:51:58.839Z,16.50
2022-11-12T10:54:36.166Z,16.50
2022-11-12T10:57:21.493Z,16.70
2022-11-12T11:00:10.143Z,16.80
2022-11-12T11:02:38.304Z,16.70
2022-11-12T11:05:31.177Z,16.60
2022-11-12T11:08:01.617Z,16.60
2022-11-12T11:10:31.517Z,16.60
2022-11-12T11:13:22.860Z,16.40
2022-11-12T11:16:02.457Z,16.50
2022-11-12T11:18:31.989Z,16.70
2022-11-12T11:21:09.807Z,16.80
2022-11-12T11:23:47.058Z,16.80
2022-11-12T11:26:28.864Z,17.00
2022-11-12T11:29:01.721Z,16.90
2022-11-12T11:31:41.353Z,17.00
2022-11-12T11:34:23.190Z,17.00
2022-11-12T11:37:02.001Z,17.00
2022-11-12T11:39:41.366Z,17.00
2022-11-12T11:42:25.016Z,17.00
2022-11-12T11:45:03.898Z,16.90
2022-11-12T11:47:59.838Z,16.90
2022-11-12T11:50:30.539Z,17.00
2022-11-12T11:53:13.962Z,17.00
2022-11-12T11:55:54.056Z,17.10
2022-11-12T11:58:48.918Z,17.00
2022-11-12T12:01:23.148Z,17.00
2022-11-12T12:04:24.451Z,17.10
2022-11-12T12:07:05.763Z,17.10
2022-11-12T12:09:43.932Z,17.20
2022-11-12T12:12:23.858Z,17.20
2022-11-12T12:15:02.729Z,17.20
2022-11-12T12:17:55.282Z,17.20
2022-11-12T12:20:33.695Z,17.10
2022-11-12T12:23:05.953Z,17.10
2022-11-12T12:25:37.387Z,16.90
2022-11-12T12:28:15.591Z,16.80
2022-11-12T12:30:47.048Z,16.80
2022-11-12T12:33:26.264Z,16.80
2022-11-12T12:35:57.900Z,16.70
2022-11-12T12:38:32.637Z,16.60
2022-11-12T12:41:06.655Z,16.50
2022-11-12T12:43:39.342Z,16.40
2022-11-12T12:46:08.103Z,16.30
2022-11-12T12:48:39.685Z,16.30
2022-11-12T12:51:07.982Z,16.20
2022-11-12T12:53:37.267Z,16.10
2022-11-12T12:56:07.076Z,16.10
2022-11-12T12:58:45.313Z,16.00
2022-11-12T13:01:31.533Z,15.90
2022-11-12T13:04:04.553Z,15.90
2022-11-12T13:06:35.735Z,15.80
2022-11-12T13:09:09.116Z,15.90
2022-11-12T13:12:14.415Z,15.90
2022-11-12T13:15:11.599Z,15.80
2022-11-12T13:17:51.242Z,15.80
2022-11-12T13:20:38.562Z,15.70
2022-11-12T13:24:04.785Z,15.80
2022-11-12T13:26:53.876Z,15.70
2022-11-12T13:29:48.308Z,15.70
2022-11-12T13:32:37.128Z,15.60
2022-11-12T13:35:47.511Z,15.60
2022-11-12T13:38:23.192Z,15.50
2022-11-12T13:40:56.056Z,15.50
2022-11-12T13:43:33.949Z,15.40
2022-11-12T13:46:40.199Z,15.30
2022-11-12T13:49:15.341Z,15.20
2022-11-12T13:51:53.447Z,15.10
2022-11-12T13:54:34.337Z,15.10
2022-11-12T13:57:29.090Z,15.00
2022-11-12T14:00:31.100Z,14.90
2022-11-12T14:03:01.893Z,14.90
2022-11-12T14:05:34.681Z,14.80
2022-11-12T14:08:56.476Z,14.70
2022-11-12T14:12:16.433Z,14.60
2022-11-12T14:15:12.434Z,14.50
2022-11-12T14:18:01.667Z,14.50
2022-11-12T14:20:41.807Z,14.50
2022-11-12T14:23:13.949Z,14.40
2022-11-12T14:25:49.984Z,14.30
2022-11-12T14:28:27.668Z,14.30
2022-11-12T14:30:56.405Z,14.20
2022-11-12T14:33:28.582Z,14.10
2022-11-12T14:36:02.355Z,14.20
2022-11-12T14:38:34.485Z,14.00
2022-11-12T14:41:06.511Z,13.90
2022-11-12T14:43:41.083Z,13.90
2022-11-12T14:46:19.846Z,13.80
2022-11-12T14:48:51.964Z,13.70
2022-11-12T14:51:23.316Z,13.70
2022-11-12T14:53:57.308Z,13.60
2022-11-12T14:56:35.178Z,13.50
2022-11-12T14:59:04.836Z,13.40
2022-11-12T15:04:26.120Z,13.20
2022-11-12T15:06:58.622Z,13.10
2022-11-12T15:09:38.033Z,13.00
2022-11-12T15:12:08.282Z,12.80
2022-11-12T15:14:36.942Z,12.80
2022-11-12T15:17:06.073Z,12.80
2022-11-12T15:19:35.047Z,12.60
2022-11-12T15:22:05.453Z,12.50
2022-11-12T15:24:35.095Z,12.50
2022-11-12T15:27:24.383Z,12.40
2022-11-12T15:30:09.049Z,12.30
2022-11-12T15:32:36.983Z,12.20
2022-11-12T15:35:05.703Z,12.10
2022-11-12T15:37:43.217Z,12.00
2022-11-12T15:40:18.731Z,12.00
2022-11-12T15:42:49.260Z,11.90
2022-11-12T15:45:28.801Z,11.90
2022-11-12T15:47:56.991Z,11.80
2022-11-12T15:50:26.169Z,11.80
2022-11-12T15:52:55.919Z,11.70
2022-11-12T15:55:24.021Z,11.60
2022-11-12T15:57:54.170Z,11.70
2022-11-12T16:00:26.582Z,11.60
2022-11-12T16:02:59.333Z,11.50
2022-11-12T16:05:27.940Z,11.50
2022-11-12T16:07:57.511Z,11.50
2022-11-12T16:10:25.568Z,11.50
2022-11-12T16:12:58.484Z,11.50
2022-11-12T16:15:27.107Z,11.50
2022-11-12T16:17:57.128Z,11.40
2022-11-12T16:20:27.085Z,11.30
2022-11-12T16:22:55.788Z,11.30
2022-11-12T16:25:29.625Z,11.20
2022-11-12T16:27:58.458Z,11.30
2022-11-12T16:30:28.258Z,11.20
2022-11-12T16:32:58.890Z,11.10
2022-11-12T16:35:27.982Z,11.10
2022-11-12T16:37:56.924Z,11.10
2022-11-12T16:40:28.408Z,11.10
2022-11-12T16:42:56.423Z,11.00
2022-11-12T16:45:26.167Z,11.00
2022-11-12T16:47:57.180Z,11.00
2022-11-12T16:50:28.982Z,11.00
2022-11-12T16:52:57.045Z,11.00
2022-11-12T16:55:26.600Z,11.00
2022-11-12T16:57:54.661Z,11.00
2022-11-12T17:00:23.035Z,11.00
2022-11-12T17:02:53.558Z,10.90
2022-11-12T17:05:24.316Z,10.90
2022-11-12T17:07:57.195Z,10.90
2022-11-12T17:10:26.717Z,10.80
2022-11-12T17:12:54.783Z,10.80
2022-11-12T17:15:23.155Z,10.80
2022-11-12T17:17:54.425Z,10.70
2022-11-12T17:20:22.493Z,10.70
2022-11-12T17:22:50.498Z,10.60
2022-11-12T17:25:18.753Z,10.60
2022-11-12T17:27:48.340Z,10.60
2022-11-12T17:30:16.676Z,10.60
2022-11-12T17:32:45.052Z,10.60
2022-11-12T17:35:13.055Z,10.50
2022-11-12T17:37:41.236Z,10.50
2022-11-12T17:40:10.585Z,10.50
2022-11-12T17:42:38.619Z,10.40
2022-11-12T17:45:09.450Z,10.40
2022-11-12T17:47:40.483Z,10.40
2022-11-12T17:50:09.944Z,10.30
2022-11-12T17:52:38.012Z,10.30
2022-11-12T17:55:06.996Z,10.20
2022-11-12T17:57:35.021Z,10.20
2022-11-12T18:00:03.124Z,10.10
2022-11-12T18:02:32.703Z,10.10
2022-11-12T18:05:00.854Z,10.10
2022-11-12T18:07:28.948Z,10.10
2022-11-12T18:09:57.037Z,10.00
2022-11-12T18:12:25.274Z,10.00
2022-11-12T18:14:59.432Z,10.00
2022-11-12T18:17:27.710Z,9.90
2022-11-12T18:19:57.229Z,9.80
2022-11-12T18:22:33.386Z,9.80
2022-11-12T18:25:01.700Z,9.70
2022-11-12T18:27:30.223Z,9.70
2022-11-12T18:29:58.435Z,9.70
2022-11-12T18:32:26.681Z,9.60
2022-11-12T18:34:56.229Z,9.70
2022-11-12T18:37:24.257Z,9.70
2022-11-12T18:40:20.865Z,9.60
2022-11-12T18:42:49.120Z,9.60
2022-11-12T18:45:17.645Z,9.40
2022-11-12T18:47:52.664Z,9.40
2022-11-12T18:50:22.189Z,9.40
2022-11-12T18:52:50.943Z,9.40
2022-11-12T18:55:19.179Z,9.30
2022-11-12T18:57:47.721Z,9.20
2022-11-12T19:00:17.266Z,9.30
2022-11-12T19:02:46.859Z,9.20
2022-11-12T19:05:20.887Z,9.20
2022-11-12T19:07:56.441Z,9.20
2022-11-12T19:10:24.509Z,9.10
2022-11-12T19:12:53.019Z,9.10
2022-11-12T19:15:26.445Z,9.10
2022-11-12T19:17:54.809Z,9.10
2022-11-12T19:20:26.299Z,9.10
2022-11-12T19:22:56.004Z,9.10
2022-11-12T19:25:30.932Z,9.10
2022-11-12T19:28:01.753Z,9.00
2022-11-12T19:30:30.377Z,9.00
2022-11-12T19:32:58.437Z,9.00
2022-11-12T19:35:28.996Z,9.00
2022-11-12T19:37:58.524Z,9.00
2022-11-12T19:40:31.142Z,8.90
2022-11-12T19:42:59.289Z,8.90
2022-11-12T19:45:27.609Z,8.90
2022-11-12T19:47:55.774Z,8.80
2022-11-12T19:50:24.937Z,8.80
2022-11-12T19:52:58.829Z,8.70
2022-11-12T19:55:29.869Z,8.70
2022-11-12T19:57:58.545Z,8.70
2022-11-12T20:00:35.734Z,8.70
2022-11-12T20:03:03.948Z,8.60
2022-11-12T20:05:34.260Z,8.50
2022-11-12T20:08:02.524Z,8.50
2022-11-12T20:10:32.206Z,8.40
2022-11-12T20:13:01.787Z,8.40
2022-11-12T20:15:29.842Z,8.40
2022-11-12T20:17:57.929Z,8.30
2022-11-12T20:20:26.130Z,8.30
2022-11-12T20:22:58.011Z,8.20
2022-11-12T20:25:26.188Z,8.20
2022-11-12T20:27:55.900Z,8.30
2022-11-12T20:36:07.045Z,8.20
2022-11-12T20:41:48.724Z,8.30
2022-11-12T20:44:19.882Z,8.30
2022-11-12T20:49:30.543Z,8.40
2022-11-12T20:52:13.449Z,8.30
2022-11-12T20:54:46.855Z,8.40
2022-11-12T20:57:17.673Z,8.50
2022-11-12T20:59:51.228Z,8.60
2022-11-12T21:02:20.081Z,9.20
2022-11-12T21:04:49.267Z,8.00
2022-11-12T21:07:29.928Z,7.90
2022-11-12T21:09:58.702Z,8.00
2022-11-12T21:12:43.488Z,7.40
2022-11-12T21:15:13.829Z,7.60
2022-11-12T21:17:44.602Z,7.60
2022-11-12T21:20:15.456Z,9.00
2022-11-12T21:22:45.457Z,7.50
2022-11-12T21:25:13.781Z,7.80
2022-11-12T21:27:48.054Z,8.10
2022-11-12T21:30:20.285Z,7.90
2022-11-12T21:32:49.105Z,7.60
2022-11-12T21:38:06.016Z,7.70
2022-11-12T21:40:36.569Z,8.40
2022-11-12T21:43:15.301Z,7.70
2022-11-12T21:46:03.192Z,7.50
2022-11-12T21:48:32.132Z,7.80
2022-11-12T21:53:49.289Z,8.20
2022-11-12T21:56:22.651Z,7.90
2022-11-12T21:58:50.992Z,8.20
2022-11-12T22:01:26.364Z,8.20
2022-11-12T22:03:56.770Z,8.20
2022-11-12T22:06:26.736Z,8.30
2022-11-12T22:08:57.128Z,8.70
2022-11-12T22:11:38.617Z,7.90
2022-11-12T22:14:10.782Z,7.90
2022-11-12T22:16:43.050Z,7.80
2022-11-12T22:19:12.993Z,8.10
2022-11-12T22:21:42.076Z,7.70
2022-11-12T22:24:14.685Z,8.00
2022-11-12T22:26:43.126Z,8.10
2022-11-12T22:29:11.615Z,7.70
2022-11-12T22:31:42.137Z,8.00
2022-11-12T22:34:11.471Z,8.10
2022-11-12T22:36:41.150Z,7.80
2022-11-12T22:39:10.809Z,7.80
2022-11-12T22:41:40.170Z,7.70
2022-11-12T22:46:56.992Z,7.40
2022-11-12T22:49:26.637Z,7.90
2022-11-12T22:51:56.719Z,7.10
2022-11-12T22:54:25.455Z,7.00
2022-11-12T22:57:00.134Z,7.40
2022-11-12T23:02:22.304Z,7.10
2022-11-12T23:04:50.898Z,7.10
2022-11-12T23:07:19.985Z,7.20
2022-11-12T23:09:49.788Z,8.20
2022-11-12T23:12:19.076Z,7.40
2022-11-12T23:14:51.008Z,7.40
2022-11-12T23:17:20.780Z,7.30
2022-11-12T23:19:50.527Z,7.00
2022-11-12T23:22:18.860Z,7.20
2022-11-12T23:24:47.329Z,8.00
2022-11-12T23:27:16.221Z,7.40
2022-11-12T23:30:09.494Z,6.90
2022-11-12T23:32:44.008Z,6.80
2022-11-12T23:35:17.026Z,6.80
2022-11-12T23:37:48.887Z,7.30
2022-11-12T23:40:19.625Z,6.60
2022-11-12T23:45:31.622Z,6.50
2022-11-12T23:48:07.595Z,6.50
2022-11-12T23:50:41.378Z,6.50
2022-11-12T23:55:55.616Z,6.70
2022-11-12T23:58:39.884Z,6.50
